Time;durP1;ratioP1;P1;durP2;ratioP2;P2;SDS_P1;SDS_P2;PMS_P1;PMS_P2;Temp;Humidity;BMP_temperature;BMP_pressure;BME280_temperature;BME280_humidity;BME280_pressure;Samples;Min_cycle;Max_cycle;Signal;HPM_P1;HPM_P2
2022/10/06 00:01:15;;;;;;;6.65;1.45;;;13.40;99.90;;;;;;6234489;22;20024;-86
2022/10/06 00:07:38;;;;;;;5.00;1.50;;;13.30;99.90;;;;;;6276391;22;20106;-86
2022/10/06 00:10:22;;;;;;;4.50;1.17;;;13.30;99.90;;;;;;6276884;22;20030;-86
2022/10/06 00:13:03;;;;;;;10.85;1.40;;;13.10;99.90;;;;;;6248611;22;20335;-86
2022/10/06 00:15:47;;;;;;;3.88;1.17;;;14.30;99.90;;;;;;6249666;22;20329;-85
2022/10/06 00:18:22;;;;;;;;;;;14.50;99.90;;;;;;6248439;22;20331;-86
2022/10/06 00:20:58;;;;;;;7.88;2.03;;;13.20;99.90;;;;;;6277086;22;19915;-86
2022/10/06 00:23:39;;;;;;;6.30;1.50;;;13.20;99.90;;;;;;6278778;22;20019;-86
2022/10/06 00:26:15;;;;;;;7.93;1.55;;;14.00;99.90;;;;;;6249018;22;20020;-86
2022/10/06 00:28:46;;;;;;;9.93;1.50;;;14.40;99.90;;;;;;6249347;22;20083;-86
2022/10/06 00:31:11;;;;;;;7.97;1.65;;;13.00;99.90;;;;;;6249462;22;20012;-86
2022/10/06 00:33:37;;;;;;;7.32;1.42;;;13.00;99.90;;;;;;6248162;22;20448;-85
2022/10/06 00:36:06;;;;;;;7.75;1.90;;;13.00;99.90;;;;;;6276402;22;20401;-85
2022/10/06 00:38:32;;;;;;;9.65;1.88;;;13.00;99.90;;;;;;6249325;22;20011;-86
2022/10/06 00:40:57;;;;;;;6.63;1.67;;;12.90;99.90;;;;;;6275807;22;20023;-86
2022/10/06 00:43:55;;;;;;;7.93;1.88;;;12.90;99.90;;;;;;6248638;22;20019;-86
2022/10/06 00:46:36;;;;;;;7.40;1.50;;;12.90;99.90;;;;;;6275146;22;20016;-86
2022/10/06 00:49:08;;;;;;;5.78;1.60;;;12.90;99.90;;;;;;6249206;22;20015;-86
2022/10/06 00:51:37;;;;;;;8.95;1.70;;;13.90;99.90;;;;;;6249221;22;20439;-86
2022/10/06 00:54:04;;;;;;;9.25;1.73;;;12.80;99.90;;;;;;6247554;22;20015;-86
2022/10/06 00:56:30;;;;;;;7.28;1.70;;;12.80;99.90;;;;;;6275457;22;20398;-86
2022/10/06 00:58:56;;;;;;;4.35;1.40;;;12.80;99.90;;;;;;6276612;22;20053;-86
2022/10/06 01:01:21;;;;;;;8.38;1.85;;;12.80;99.90;;;;;;6274450;22;20047;-85
2022/10/06 01:06:22;;;;;;;8.00;1.70;;;12.80;99.90;;;;;;6264868;22;20035;-86
2022/10/06 01:09:00;;;;;;;7.07;1.50;;;12.60;99.90;;;;;;6275286;22;20370;-86
2022/10/06 01:11:26;;;;;;;8.88;1.63;;;12.80;99.90;;;;;;6248472;22;20030;-86
2022/10/06 01:13:57;;;;;;;6.32;1.50;;;12.80;99.90;;;;;;6248951;22;20016;-86
2022/10/06 01:16:55;;;;;;;7.03;1.50;;;12.80;99.90;;;;;;6248668;22;20099;-86
2022/10/06 01:19:50;;;;;;;8.50;1.70;;;12.50;99.90;;;;;;6097942;23;20382;-86
2022/10/06 01:22:21;;;;;;;8.35;1.77;;;12.60;99.90;;;;;;6156515;22;20072;-86
2022/10/06 01:25:06;;;;;;;6.72;1.60;;;13.50;99.90;;;;;;6249161;22;20095;-86
2022/10/06 01:27:37;;;;;;;7.78;1.77;;;12.50;99.90;;;;;;6275891;22;20348;-86
2022/10/06 01:30:05;;;;;;;6.80;1.60;;;13.10;99.90;;;;;;6248181;22;20428;-86
2022/10/06 01:32:35;;;;;;;6.82;1.95;;;12.40;99.90;;;;;;6276004;22;20020;-86
2022/10/06 01:35:00;;;;;;;6.93;1.92;;;13.00;99.90;;;;;;6247821;22;20019;-85
2022/10/06 01:37:26;;;;;;;9.02;2.05;;;12.30;99.90;;;;;;6275917;22;20196;-86
2022/10/06 01:39:52;;;;;;;7.70;2.00;;;13.30;99.90;;;;;;6248863;22;20321;-86
2022/10/06 01:42:18;;;;;;;10.45;2.17;;;13.30;99.90;;;;;;6247462;22;20053;-85
2022/10/06 01:45:04;;;;;;;10.07;1.92;;;12.20;99.90;;;;;;6275857;22;20077;-86
2022/10/06 01:50:30;;;;;;;8.25;1.60;;;12.90;99.90;;;;;;6247561;22;20031;-85
2022/10/06 01:53:13;;;;;;;9.25;2.03;;;13.00;99.90;;;;;;6248622;22;20019;-85
2022/10/06 01:55:58;;;;;;;9.55;1.95;;;12.10;99.90;;;;;;6276127;22;20087;-86
2022/10/06 01:58:26;;;;;;;8.73;1.90;;;12.90;99.90;;;;;;6247590;22;20023;-86
2022/10/06 02:01:06;;;;;;;11.48;2.22;;;12.00;99.90;;;;;;6248767;22;20340;-85
2022/10/06 02:03:38;;;;;;;7.22;1.70;;;12.00;99.90;;;;;;6248077;22;20090;-86
2022/10/06 02:06:25;;;;;;;10.68;1.90;;;11.10;99.90;;;;;;6243525;23;20027;-86
2022/10/06 02:08:50;;;;;;;10.10;1.75;;;11.90;99.90;;;;;;6244416;22;20022;-86
2022/10/06 02:11:34;;;;;;;11.35;2.17;;;12.00;99.90;;;;;;6242412;23;20024;-86
2022/10/06 02:14:16;;;;;;;16.73;2.95;;;11.80;99.90;;;;;;6245113;23;20023;-86
2022/10/06 02:16:57;;;;;;;7.80;1.80;;;12.70;99.90;;;;;;6243422;23;20027;-85
2022/10/06 02:19:38;;;;;;;11.30;2.08;;;12.50;99.90;;;;;;6242671;23;20046;-86
2022/10/06 02:22:19;;;;;;;8.93;1.90;;;11.60;99.90;;;;;;6243617;23;20031;-86
2022/10/06 02:24:59;;;;;;;10.55;2.00;;;12.10;99.90;;;;;;6242722;23;20020;-86
2022/10/06 02:27:25;;;;;;;10.35;2.17;;;11.50;99.90;;;;;;6243479;23;20024;-86
2022/10/06 02:29:54;;;;;;;9.63;2.00;;;11.50;99.90;;;;;;6243137;23;20104;-86
2022/10/06 02:32:20;;;;;;;8.73;2.00;;;11.60;99.90;;;;;;6244005;22;20055;-86
2022/10/06 02:34:46;;;;;;;9.70;2.05;;;11.50;99.90;;;;;;6243133;23;20020;-86
2022/10/06 02:37:14;;;;;;;11.90;2.40;;;11.50;99.90;;;;;;6243445;23;20024;-86
2022/10/06 02:39:40;;;;;;;12.68;2.22;;;11.60;99.90;;;;;;6242809;23;20021;-86
2022/10/06 02:42:06;;;;;;;8.75;2.00;;;11.50;99.90;;;;;;6246071;22;20016;-86
2022/10/06 02:44:32;;;;;;;12.27;2.33;;;11.60;99.90;;;;;;6245498;23;20012;-86
2022/10/06 02:47:49;;;;;;;11.13;2.35;;;11.60;99.90;;;;;;6268231;22;20549;-86
2022/10/06 02:50:20;;;;;;;8.77;2.13;;;11.60;99.90;;;;;;6249236;22;20074;-85
2022/10/06 02:52:48;;;;;;;10.23;2.03;;;11.50;99.90;;;;;;6248618;22;20011;-86
2022/10/06 02:55:14;;;;;;;12.15;2.85;;;11.50;99.90;;;;;;6276908;22;20485;-86
2022/10/06 02:57:46;;;;;;;11.90;2.65;;;11.50;99.90;;;;;;6250047;22;20206;-86
2022/10/06 03:00:32;;;;;;;10.20;2.10;;;10.90;99.90;;;;;;6275263;22;20034;-85
2022/10/06 03:03:12;;;;;;;13.85;2.20;;;11.50;99.90;;;;;;6276697;22;20019;-86
2022/10/06 03:05:44;;;;;;;14.05;2.67;;;10.80;99.90;;;;;;6250155;22;20313;-85
2022/10/06 03:08:22;;;;;;;9.30;1.83;;;12.60;99.90;;;;;;6249001;22;20042;-85
2022/10/06 03:11:01;;;;;;;8.57;2.17;;;11.10;99.90;;;;;;6276660;22;20012;-86
2022/10/06 03:13:27;;;;;;;12.40;2.15;;;12.90;99.90;;;;;;6249177;22;20022;-85
2022/10/06 03:23:23;;;;;;;11.10;1.85;;;11.40;99.90;;;;;;6276685;22;20018;-86
2022/10/06 03:26:10;;;;;;;8.85;1.98;;;12.10;99.90;;;;;;6249481;22;20440;-85
2022/10/06 03:28:36;;;;;;;12.88;2.13;;;11.50;99.90;;;;;;6248833;22;20387;-86
2022/10/06 03:31:06;;;;;;;10.48;2.25;;;11.40;99.90;;;;;;6249568;22;20016;-86
2022/10/06 03:33:32;;;;;;;13.25;2.25;;;11.40;99.90;;;;;;6277103;22;20439;-86
2022/10/06 03:36:14;;;;;;;11.30;2.67;;;11.40;99.90;;;;;;6247586;22;20012;-86
2022/10/06 03:38:40;;;;;;;11.45;1.95;;;11.30;99.90;;;;;;6250228;22;20022;-85
2022/10/06 03:41:10;;;;;;;11.15;2.05;;;11.30;99.90;;;;;;6249185;22;20018;-86
2022/10/06 03:43:37;;;;;;;11.45;2.63;;;11.30;99.90;;;;;;6248804;22;20440;-86
2022/10/06 03:46:04;;;;;;;7.90;1.75;;;11.30;99.90;;;;;;6276667;22;20023;-86
2022/10/06 03:48:32;;;;;;;17.40;2.80;;;11.20;99.90;;;;;;6249333;22;20019;-86
2022/10/06 03:51:04;;;;;;;9.27;1.92;;;12.40;99.90;;;;;;6248925;22;20016;-86
2022/10/06 03:53:39;;;;;;;9.68;1.90;;;11.20;99.90;;;;;;6275612;22;20470;-86
2022/10/06 03:56:20;;;;;;;13.70;2.53;;;12.20;99.90;;;;;;6248685;22;20015;-86
2022/10/06 03:59:03;;;;;;;10.25;2.20;;;10.60;99.90;;;;;;6276895;22;20011;-86
2022/10/06 04:01:43;;;;;;;11.73;2.17;;;11.00;99.90;;;;;;6249171;22;20023;-86
2022/10/06 04:04:10;;;;;;;12.43;2.38;;;11.20;99.90;;;;;;6247662;22;20452;-86
2022/10/06 04:06:38;;;;;;;11.20;2.40;;;11.10;99.90;;;;;;6248287;22;20439;-86
2022/10/06 04:09:05;;;;;;;11.70;2.33;;;12.10;99.90;;;;;;6249263;22;20095;-85
2022/10/06 04:11:34;;;;;;;10.80;2.10;;;11.00;99.90;;;;;;6248079;22;20458;-86
2022/10/06 04:14:02;;;;;;;12.10;2.17;;;11.90;99.90;;;;;;6276560;22;20305;-85
2022/10/06 04:16:30;;;;;;;9.70;2.50;;;11.00;99.90;;;;;;6248853;22;20016;-85
2022/10/06 04:18:58;;;;;;;14.40;2.00;;;11.00;99.90;;;;;;6275880;22;20027;-86
2022/10/06 04:21:42;;;;;;;11.60;2.10;;;10.90;99.90;;;;;;6248962;22;20390;-86
2022/10/06 04:24:23;;;;;;;10.40;2.42;;;10.90;99.90;;;;;;6274808;22;20016;-86
2022/10/06 04:29:47;;;;;;;18.40;2.30;;;12.00;99.90;;;;;;6249242;22;20015;-86
2022/10/06 04:32:13;;;;;;;13.02;2.60;;;10.80;99.90;;;;;;6247857;22;20015;-86
2022/10/06 04:34:44;;;;;;;12.65;2.22;;;10.70;99.90;;;;;;6249528;22;20318;-86
2022/10/06 04:37:15;;;;;;;9.30;2.20;;;10.70;99.90;;;;;;6249010;22;20456;-86
2022/10/06 04:39:47;;;;;;;11.52;2.05;;;11.30;99.90;;;;;;6275197;22;20023;-86
2022/10/06 04:42:13;;;;;;;11.07;1.95;;;10.70;99.90;;;;;;6248888;22;20447;-86
2022/10/06 04:44:49;;;;;;;15.07;2.60;;;11.80;99.90;;;;;;6248055;22;20026;-86
2022/10/06 04:47:15;;;;;;;12.23;2.03;;;11.70;99.90;;;;;;6241605;23;20098;-86
2022/10/06 04:49:46;;;;;;;9.52;2.00;;;11.80;99.90;;;;;;6243210;23;20060;-86
2022/10/06 04:52:18;;;;;;;13.00;1.98;;;10.50;99.90;;;;;;6241841;23;20024;-85
2022/10/06 04:54:53;;;;;;;12.68;2.40;;;10.60;99.90;;;;;;6243617;23;20016;-86
2022/10/06 04:57:18;;;;;;;12.13;2.05;;;10.80;99.90;;;;;;6216734;22;20080;-86
2022/10/06 05:02:28;;;;;;;10.65;2.00;;;10.60;99.90;;;;;;6243352;23;20024;-86
2022/10/06 05:04:56;;;;;;;11.25;2.58;;;10.50;99.90;;;;;;6245534;23;20019;-86
2022/10/06 05:07:22;;;;;;;9.25;2.38;;;10.50;99.90;;;;;;6244446;22;20070;-86
2022/10/06 05:09:56;;;;;;;15.57;2.50;;;10.40;99.90;;;;;;6243690;23;20016;-86
2022/10/06 05:12:21;;;;;;;;;;;10.50;99.90;;;;;;6241940;23;20020;-86
2022/10/06 05:14:47;;;;;;;10.50;2.00;;;11.60;99.90;;;;;;6242647;23;19986;-85
2022/10/06 05:17:12;;;;;;;9.30;2.00;;;10.40;99.90;;;;;;6243075;23;20402;-86
2022/10/06 05:19:38;;;;;;;12.57;2.22;;;10.40;99.90;;;;;;6245311;23;20012;-85
2022/10/06 05:22:04;;;;;;;10.80;1.88;;;10.40;99.90;;;;;;6244797;23;20016;-86
2022/10/06 05:24:29;;;;;;;8.68;1.95;;;10.30;99.90;;;;;;6243321;23;20034;-86
2022/10/06 05:26:55;;;;;;;11.70;2.60;;;10.30;99.90;;;;;;6243922;23;20102;-86
2022/10/06 05:29:20;;;;;;;14.13;2.10;;;10.30;99.90;;;;;;6244509;23;20015;-86
2022/10/06 05:31:46;;;;;;;13.05;2.30;;;10.30;99.90;;;;;;6243293;23;20114;-85
2022/10/06 05:34:11;;;;;;;12.68;2.10;;;10.30;99.90;;;;;;6242272;23;20019;-85
2022/10/06 05:36:37;;;;;;;13.23;2.63;;;10.30;99.90;;;;;;6243623;23;20170;-86
2022/10/06 05:39:15;;;;;;;12.93;2.13;;;10.20;99.90;;;;;;6245277;22;20008;-86
2022/10/06 05:41:41;;;;;;;11.35;2.92;;;10.20;99.90;;;;;;6244123;23;20051;-86
2022/10/06 05:44:07;;;;;;;13.05;2.03;;;10.40;99.90;;;;;;6245273;23;20432;-86
2022/10/06 05:49:32;;;;;;;12.68;2.30;;;10.20;99.90;;;;;;6271701;22;20086;-86
2022/10/06 05:52:01;;;;;;;12.20;2.30;;;10.30;99.90;;;;;;6247949;22;20016;-86
2022/10/06 05:54:26;;;;;;;11.82;2.30;;;10.30;99.90;;;;;;6247796;22;20015;-86
2022/10/06 05:57:13;;;;;;;12.82;2.05;;;11.70;99.90;;;;;;6247835;22;20583;-86
2022/10/06 05:59:39;;;;;;;10.65;2.38;;;10.30;99.90;;;;;;6248371;22;20016;-86
2022/10/06 06:02:17;;;;;;;12.57;2.22;;;11.30;99.90;;;;;;6247972;22;20077;-86
2022/10/06 06:04:55;;;;;;;10.85;2.05;;;9.80;99.90;;;;;;6248125;22;20057;-86
2022/10/06 06:07:21;;;;;;;11.73;2.30;;;11.90;99.90;;;;;;6248036;22;20051;-85
2022/10/06 06:10:15;;;;;;;9.50;1.80;;;9.60;99.90;;;;;;6247189;22;20023;-86
2022/10/06 06:12:40;;;;;;;10.88;1.85;;;10.40;99.90;;;;;;6247929;22;20074;-84
2022/10/06 06:17:52;;;;;;;10.60;2.17;;;10.40;99.90;;;;;;6249720;22;20016;-85
2022/10/06 06:20:17;;;;;;;12.13;2.05;;;11.30;99.90;;;;;;6250082;22;20107;-84
2022/10/06 06:22:43;;;;;;;11.10;2.28;;;10.40;99.90;;;;;;6250317;22;20019;-84
2022/10/06 06:25:08;;;;;;;10.27;2.30;;;10.40;99.90;;;;;;6276298;22;20372;-84
2022/10/06 06:27:34;;;;;;;11.13;1.95;;;10.50;99.90;;;;;;6250351;22;20430;-84
2022/10/06 06:30:00;;;;;;;10.35;2.10;;;10.50;99.90;;;;;;6277425;22;20012;-84
2022/10/06 06:32:26;;;;;;;10.95;2.05;;;10.50;99.90;;;;;;6248884;22;20027;-83
2022/10/06 06:34:51;;;;;;;11.98;2.00;;;10.50;99.90;;;;;;6250094;22;20341;-84
2022/10/06 06:37:17;;;;;;;11.35;2.20;;;10.70;99.90;;;;;;6277081;22;20019;-83
2022/10/06 06:39:43;;;;;;;11.05;1.80;;;10.60;99.90;;;;;;6248977;22;20161;-82
2022/10/06 06:42:08;;;;;;;10.57;2.17;;;10.60;99.90;;;;;;6274898;22;20023;-82
2022/10/06 06:44:34;;;;;;;11.82;2.20;;;11.20;99.90;;;;;;6249378;22;20020;-81
2022/10/06 06:47:33;;;;;;;11.48;2.28;;;10.70;99.90;;;;;;6249824;22;20343;-82
2022/10/06 06:52:42;;;;;;;11.77;2.20;;;10.80;99.90;;;;;;6214675;23;20049;-82
2022/10/06 06:55:08;;;;;;;9.10;2.00;;;12.40;99.90;;;;;;6189315;23;20043;-81
2022/10/06 06:57:45;;;;;;;11.82;2.33;;;10.80;99.90;;;;;;6189651;23;20438;-80
2022/10/06 07:06:27;;;;;;;10.30;1.75;;;11.00;99.90;;;;;;6245034;22;20055;-81
2022/10/06 07:08:59;;;;;;;13.57;2.60;;;11.10;99.90;;;;;;6244624;23;20022;-81
2022/10/06 07:11:37;;;;;;;10.40;2.20;;;11.10;99.90;;;;;;6244695;23;20012;-81
2022/10/06 07:14:05;;;;;;;10.43;1.70;;;11.10;99.90;;;;;;6244148;23;20012;-81
2022/10/06 07:25:23;;;;;;;10.80;2.17;;;11.40;99.90;;;;;;6153273;23;20021;-81
2022/10/06 07:27:51;;;;;;;9.38;1.95;;;11.30;99.90;;;;;;6210189;23;20056;-81
2022/10/06 07:30:23;;;;;;;8.27;1.92;;;11.50;99.90;;;;;;6244225;23;20348;-81
2022/10/06 07:32:50;;;;;;;11.38;2.15;;;11.50;99.90;;;;;;6246799;22;20012;-81
2022/10/06 07:35:18;;;;;;;11.13;2.13;;;11.60;99.90;;;;;;6243444;23;20016;-81
2022/10/06 07:37:44;;;;;;;6.93;1.75;;;12.20;99.90;;;;;;6244732;23;20016;-82
2022/10/06 07:40:13;;;;;;;14.02;1.95;;;11.60;99.90;;;;;;6245768;23;20444;-83
2022/10/06 07:42:50;;;;;;;10.77;2.20;;;11.70;99.90;;;;;;6245746;22;20053;-83
2022/10/06 07:45:37;;;;;;;11.35;1.90;;;11.80;99.90;;;;;;6244137;23;20340;-82
2022/10/06 07:48:16;;;;;;;11.07;2.13;;;11.80;99.90;;;;;;6243843;23;20083;-82
2022/10/06 07:50:44;;;;;;;10.93;2.08;;;11.90;99.90;;;;;;6246698;22;20016;-82
2022/10/06 07:53:10;;;;;;;12.50;1.85;;;11.90;99.90;;;;;;6243409;23;20444;-81
2022/10/06 07:55:41;;;;;;;12.95;2.50;;;12.00;99.90;;;;;;6242740;23;20096;-81
2022/10/06 07:58:15;;;;;;;13.35;2.30;;;12.00;99.90;;;;;;6246201;23;20383;-82
2022/10/06 08:00:41;;;;;;;14.10;2.85;;;12.10;99.90;;;;;;6246373;22;20023;-81
2022/10/06 08:03:09;;;;;;;11.02;2.28;;;12.10;99.90;;;;;;6243328;22;20390;-81
2022/10/06 08:05:35;;;;;;;14.45;1.90;;;13.20;99.90;;;;;;6243793;23;20016;-82
2022/10/06 08:08:00;;;;;;;11.23;2.08;;;12.30;99.90;;;;;;6244023;23;20028;-82
2022/10/06 08:10:26;;;;;;;12.20;2.10;;;12.30;99.90;;;;;;6242663;23;20801;-82
2022/10/06 08:12:52;;;;;;;12.02;1.90;;;12.40;99.90;;;;;;6244178;23;20011;-82
2022/10/06 08:15:17;;;;;;;12.15;1.98;;;12.50;99.90;;;;;;6243475;23;20019;-83
2022/10/06 08:17:43;;;;;;;9.93;2.00;;;12.60;99.90;;;;;;6244493;22;20095;-82
2022/10/06 08:20:11;;;;;;;11.00;2.58;;;12.60;99.90;;;;;;6243743;23;20012;-84
2022/10/06 08:22:38;;;;;;;14.27;2.33;;;12.70;99.90;;;;;;6244187;23;20016;-81
2022/10/06 08:25:06;;;;;;;13.18;2.00;;;12.80;99.90;;;;;;6245065;22;20431;-81
2022/10/06 08:27:33;;;;;;;11.40;2.20;;;12.90;99.90;;;;;;6244196;23;20043;-81
2022/10/06 08:29:59;;;;;;;11.60;2.20;;;13.00;99.90;;;;;;6244948;22;20014;-82
2022/10/06 08:32:25;;;;;;;9.70;2.42;;;13.60;99.90;;;;;;6243754;23;20012;-83
2022/10/06 08:34:57;;;;;;;8.68;2.00;;;13.50;99.90;;;;;;6244363;22;20016;-82
2022/10/06 08:37:28;;;;;;;11.73;1.90;;;14.50;99.90;;;;;;6242812;23;20012;-81
2022/10/06 08:39:54;;;;;;;10.02;1.98;;;14.30;99.90;;;;;;6245569;23;20020;-81
2022/10/06 08:42:36;;;;;;;12.95;2.50;;;13.30;99.90;;;;;;6243691;23;20456;-81
2022/10/06 08:45:08;;;;;;;11.32;2.25;;;14.00;99.90;;;;;;6243037;23;20345;-81
2022/10/06 08:47:35;;;;;;;12.48;2.15;;;13.40;99.90;;;;;;6245512;23;20042;-81
2022/10/06 08:50:09;;;;;;;14.07;2.45;;;13.70;99.90;;;;;;6243977;23;20080;-81
2022/10/06 08:52:43;;;;;;;;;;;13.50;99.90;;;;;;6243611;23;20023;-81
2022/10/06 08:55:30;;;;;;;10.07;1.93;;;14.20;99.90;;;;;;6245345;22;19919;-81
2022/10/06 08:58:14;;;;;;;11.02;2.08;;;13.60;99.90;;;;;;6243812;23;20027;-81
2022/10/06 09:00:40;;;;;;;;;;;13.70;99.90;;;;;;6244544;23;20020;-81
2022/10/06 09:03:21;;;;;;;8.63;1.70;;;13.70;99.90;;;;;;6244133;23;19965;-81
2022/10/06 09:05:48;;;;;;;15.30;2.60;;;13.70;99.90;;;;;;6231439;22;20453;-82
2022/10/06 09:08:42;;;;;;;10.75;2.13;;;15.00;99.90;;;;;;6217915;23;20054;-83
2022/10/06 09:11:14;;;;;;;13.68;2.50;;;13.90;99.90;;;;;;6245130;23;20020;-82
2022/10/06 09:14:05;;;;;;;10.32;2.13;;;13.90;99.90;;;;;;6217458;23;20044;-82
2022/10/06 09:16:37;;;;;;;9.88;1.85;;;13.90;99.90;;;;;;6237338;23;20016;-82
2022/10/06 09:19:27;;;;;;;12.27;2.08;;;15.30;99.90;;;;;;6218069;23;20012;-82
2022/10/06 09:21:58;;;;;;;14.02;2.40;;;14.10;99.90;;;;;;6218152;23;20020;-82
2022/10/06 09:24:37;;;;;;;9.73;2.08;;;14.10;99.90;;;;;;6244284;23;20065;-82
2022/10/06 09:27:20;;;;;;;10.27;2.25;;;14.60;99.90;;;;;;6216729;23;20453;-82
2022/10/06 09:29:49;;;;;;;12.60;2.75;;;14.10;99.90;;;;;;6245008;23;20016;-83
2022/10/06 09:32:17;;;;;;;12.43;1.90;;;15.20;99.90;;;;;;6217691;23;20004;-83
2022/10/06 09:34:58;;;;;;;12.15;2.20;;;15.40;99.90;;;;;;6217513;23;20098;-83
2022/10/06 09:37:24;;;;;;;12.20;2.50;;;14.30;99.90;;;;;;6245016;23;20016;-82
2022/10/06 09:39:51;;;;;;;15.45;2.10;;;15.20;99.90;;;;;;6218316;23;20016;-83
2022/10/06 09:42:25;;;;;;;12.73;2.78;;;15.20;99.90;;;;;;6214892;23;20016;-82
2022/10/06 09:47:49;;;;;;;12.20;2.13;;;15.00;99.90;;;;;;6242180;22;21278;-82
2022/10/06 09:50:26;;;;;;;11.05;2.30;;;16.40;99.90;;;;;;6274962;22;20019;-82
2022/10/06 09:53:02;;;;;;;9.90;2.00;;;15.20;99.90;;;;;;6250286;22;20015;-82
2022/10/06 09:55:36;;;;;;;12.52;2.17;;;15.00;99.90;;;;;;6249459;22;20095;-82
2022/10/06 09:58:14;;;;;;;11.38;2.28;;;15.10;99.90;;;;;;6278074;22;20055;-82
2022/10/06 10:00:52;;;;;;;16.02;2.65;;;16.30;99.90;;;;;;6278249;22;20016;-84
2022/10/06 10:03:19;;;;;;;10.93;2.05;;;15.00;99.90;;;;;;6248679;22;20023;-84
2022/10/06 10:05:56;;;;;;;11.45;2.10;;;15.00;99.90;;;;;;6277981;22;20015;-83
2022/10/06 10:08:26;;;;;;;10.73;1.90;;;15.10;99.90;;;;;;6250310;22;20015;-83
2022/10/06 10:12:23;;;;;;;7.70;2.13;;;15.20;99.90;;;;;;6250758;22;20012;-82
2022/10/06 10:13:55;;;;;;;6.70;1.75;;;15.30;99.90;;;;;;6277210;22;20075;-82
2022/10/06 10:16:29;;;;;;;14.52;2.17;;;15.70;99.90;;;;;;6276563;22;20034;-83
2022/10/06 10:18:56;;;;;;;11.80;2.10;;;16.50;99.90;;;;;;6268847;22;20020;-83
2022/10/06 10:21:28;;;;;;;11.07;2.22;;;16.60;99.90;;;;;;6249924;22;20016;-83
2022/10/06 10:24:00;;;;;;;10.23;2.10;;;15.70;99.90;;;;;;6249501;22;20011;-83
2022/10/06 10:26:44;;;;;;;12.48;2.10;;;15.70;99.90;;;;;;6277228;22;20239;-83
2022/10/06 10:29:19;;;;;;;11.40;2.05;;;15.70;99.90;;;;;;6277153;22;20016;-82
2022/10/06 10:31:48;;;;;;;10.18;1.90;;;15.50;99.90;;;;;;6276757;22;20023;-82
2022/10/06 10:34:28;;;;;;;9.75;2.00;;;15.80;99.90;;;;;;6249886;22;20289;-81
2022/10/06 10:37:20;;;;;;;13.07;2.35;;;16.00;99.90;;;;;;6249068;22;20012;-82
2022/10/06 10:40:01;;;;;;;11.55;1.80;;;16.00;99.90;;;;;;6250328;22;20011;-83
2022/10/06 10:42:58;;;;;;;9.10;2.00;;;16.00;99.90;;;;;;6249805;22;20532;-82
2022/10/06 10:45:33;;;;;;;7.95;1.80;;;16.20;99.90;;;;;;6275633;22;20095;-83
2022/10/06 10:48:30;;;;;;;12.18;2.15;;;16.40;99.90;;;;;;6249997;22;20027;-83
2022/10/06 10:51:17;;;;;;;7.82;1.80;;;16.50;99.90;;;;;;6248545;22;20016;-83
2022/10/06 10:54:03;;;;;;;12.55;2.00;;;16.40;99.90;;;;;;6250149;22;20027;-82
2022/10/06 10:56:31;;;;;;;10.85;1.90;;;16.40;99.90;;;;;;6249821;22;20023;-82
2022/10/06 10:59:13;;;;;;;10.05;2.42;;;16.20;99.90;;;;;;6276547;22;20059;-82
2022/10/06 11:01:54;;;;;;;11.90;2.65;;;16.00;99.90;;;;;;6249429;22;20019;-82
2022/10/06 11:04:21;;;;;;;8.45;2.10;;;16.00;99.90;;;;;;6249539;22;20027;-82
2022/10/06 11:07:10;;;;;;;9.27;1.98;;;15.90;99.90;;;;;;6249257;22;20351;-83
2022/10/06 11:10:04;;;;;;;10.00;2.17;;;15.90;99.90;;;;;;6250315;22;20101;-83
2022/10/06 11:13:09;;;;;;;8.45;2.00;;;15.80;99.90;;;;;;6248862;22;20140;-83
2022/10/06 11:15:49;;;;;;;8.43;1.92;;;16.10;99.90;;;;;;6254362;22;20383;-82
2022/10/06 11:18:41;;;;;;;10.02;2.38;;;16.40;99.90;;;;;;6250119;22;20103;-83
2022/10/06 11:21:16;;;;;;;9.35;2.17;;;16.30;99.90;;;;;;6248696;22;20026;-83
2022/10/06 11:23:49;;;;;;;10.98;2.35;;;16.50;99.90;;;;;;6277307;22;20027;-83
2022/10/06 11:26:40;;;;;;;9.57;2.22;;;17.50;99.90;;;;;;6248883;22;20064;-83
2022/10/06 11:29:18;;;;;;;11.25;2.20;;;16.60;99.90;;;;;;6277253;22;20020;-83
2022/10/06 11:31:55;;;;;;;9.90;1.92;;;16.60;99.90;;;;;;6250232;22;20098;-83
2022/10/06 11:34:21;;;;;;;7.97;2.30;;;16.20;99.90;;;;;;6276222;22;20378;-83
2022/10/06 11:37:08;;;;;;;7.53;2.17;;;16.40;99.90;;;;;;6249987;22;20503;-82
2022/10/06 11:39:36;;;;;;;12.45;2.22;;;16.30;99.90;;;;;;6249741;22;20090;-83
2022/10/06 11:42:23;;;;;;;9.50;2.03;;;16.60;99.90;;;;;;6248871;22;20015;-83
2022/10/06 11:45:02;;;;;;;11.77;2.00;;;16.90;99.90;;;;;;6250043;22;20439;-83
2022/10/06 11:47:43;;;;;;;10.07;2.25;;;17.20;99.90;;;;;;6276029;22;20082;-83
2022/10/06 11:50:32;;;;;;;11.45;1.92;;;17.30;99.90;;;;;;6249642;22;20117;-83
2022/10/06 11:52:58;;;;;;;8.13;1.77;;;17.30;99.90;;;;;;6249764;22;20019;-83
2022/10/06 11:55:27;;;;;;;12.93;2.55;;;17.90;99.90;;;;;;6248389;22;20448;-83
2022/10/06 11:58:13;;;;;;;7.70;2.00;;;17.10;99.90;;;;;;6249918;22;20027;-83
2022/10/06 12:00:41;;;;;;;8.43;1.85;;;17.00;99.90;;;;;;6249927;22;20365;-83
2022/10/06 12:03:29;;;;;;;10.13;1.88;;;17.20;99.90;;;;;;6248418;22;20102;-83
2022/10/06 12:05:56;;;;;;;8.20;1.65;;;17.50;99.90;;;;;;6249638;22;20020;-83
2022/10/06 12:08:39;;;;;;;9.32;1.73;;;18.20;99.90;;;;;;6248139;22;20020;-83
2022/10/06 12:11:39;;;;;;;7.82;1.73;;;17.90;99.90;;;;;;6249412;22;20016;-83
2022/10/06 12:14:19;;;;;;;12.25;1.80;;;18.10;99.90;;;;;;6249251;22;20016;-83
2022/10/06 12:16:46;;;;;;;10.52;1.92;;;18.30;99.90;;;;;;6248369;22;20011;-83
2022/10/06 12:19:24;;;;;;;8.90;1.88;;;18.40;99.90;;;;;;6249254;22;20486;-83
2022/10/06 12:22:13;;;;;;;9.85;1.80;;;17.70;99.90;;;;;;6277046;22;20011;-83
2022/10/06 12:24:50;;;;;;;11.02;2.10;;;17.50;99.90;;;;;;6249437;22;20027;-83
2022/10/06 12:27:45;;;;;;;9.45;1.80;;;17.60;99.90;;;;;;6248911;22;20016;-83
2022/10/06 12:30:41;;;;;;;9.15;1.70;;;17.50;99.90;;;;;;6248252;22;20012;-83
2022/10/06 12:33:16;;;;;;;6.47;1.60;;;17.70;99.90;;;;;;6249161;22;20018;-83
2022/10/06 12:35:43;;;;;;;8.70;1.88;;;17.60;99.90;;;;;;6249409;22;20019;-83
2022/10/06 12:38:27;;;;;;;5.60;1.50;;;18.50;99.90;;;;;;6275563;22;20019;-83
2022/10/06 12:40:56;;;;;;;10.52;2.00;;;17.40;99.90;;;;;;6249210;22;20016;-83
2022/10/06 12:43:22;;;;;;;10.65;2.60;;;17.40;99.90;;;;;;6247964;22;20012;-83
2022/10/06 12:46:21;;;;;;;7.88;1.80;;;17.70;99.90;;;;;;6249181;22;20023;-83
2022/10/06 12:48:56;;;;;;;8.63;1.73;;;18.00;99.90;;;;;;6248991;22;20475;-83
2022/10/06 12:51:29;;;;;;;10.95;2.20;;;18.10;99.90;;;;;;6247965;22;20024;-83
2022/10/06 12:56:37;;;;;;;9.90;2.00;;;18.10;99.90;;;;;;6252574;22;20452;-83
2022/10/06 12:59:21;;;;;;;9.50;1.90;;;18.90;99.90;;;;;;6248118;22;20016;-83
2022/10/06 13:02:13;;;;;;;9.90;2.00;;;18.40;99.90;;;;;;6199238;23;20455;-83
2022/10/06 13:04:47;;;;;;;10.38;1.90;;;17.70;99.90;;;;;;6212637;23;20024;-83
2022/10/06 13:07:22;;;;;;;10.15;1.83;;;18.80;99.90;;;;;;6215181;23;20016;-82
2022/10/06 13:09:54;;;;;;;8.57;1.90;;;17.90;99.90;;;;;;6213649;23;20024;-82
2022/10/06 13:12:29;;;;;;;5.97;1.38;;;17.90;99.90;;;;;;6214245;23;20031;-83
2022/10/06 13:15:16;;;;;;;9.18;1.77;;;18.20;99.90;;;;;;6213678;23;20471;-82
2022/10/06 13:17:50;;;;;;;6.90;1.50;;;18.20;99.90;;;;;;6213845;23;20017;-83
2022/10/06 13:20:36;;;;;;;10.13;1.40;;;18.20;99.90;;;;;;6212248;23;20435;-83
2022/10/06 13:23:08;;;;;;;9.18;1.70;;;18.00;99.90;;;;;;6213802;23;20023;-83
2022/10/06 13:26:07;;;;;;;6.57;1.52;;;18.10;99.90;;;;;;6212746;23;20052;-83
2022/10/06 13:28:35;;;;;;;10.18;1.75;;;18.70;99.30;;;;;;6166249;23;20021;-83
2022/10/06 13:31:13;;;;;;;6.57;1.30;;;18.50;99.90;;;;;;6213618;23;20075;-83
2022/10/06 13:33:43;;;;;;;6.53;1.60;;;18.30;99.90;;;;;;6212784;23;20055;-83
2022/10/06 13:36:11;;;;;;;10.45;1.92;;;18.40;99.90;;;;;;6213170;23;20277;-83
2022/10/06 13:38:37;;;;;;;11.82;2.20;;;18.50;99.40;;;;;;6213284;23;20044;-83
2022/10/06 13:41:18;;;;;;;7.30;1.60;;;18.30;98.30;;;;;;6212114;23;20012;-83
2022/10/06 13:43:51;;;;;;;9.88;1.60;;;18.40;99.90;;;;;;6213625;23;20028;-83
2022/10/06 13:46:20;;;;;;;12.05;1.80;;;18.30;99.90;;;;;;6213108;23;20016;-83
2022/10/06 13:48:53;;;;;;;8.27;1.77;;;18.40;99.90;;;;;;6212481;23;20013;-83
2022/10/06 13:51:23;;;;;;;7.95;1.77;;;18.20;98.30;;;;;;6214992;23;20021;-83
2022/10/06 13:53:49;;;;;;;8.60;1.80;;;18.30;99.20;;;;;;6214084;23;20048;-82
2022/10/06 13:56:33;;;;;;;7.55;1.80;;;18.60;99.90;;;;;;6213067;23;20020;-83
2022/10/06 13:59:31;;;;;;;13.63;2.00;;;18.20;98.80;;;;;;6214906;23;20437;-83
2022/10/06 14:02:00;;;;;;;7.60;1.58;;;18.10;99.90;;;;;;6232073;23;20027;-83
2022/10/06 14:04:26;;;;;;;6.78;1.38;;;18.00;99.90;;;;;;6244935;23;20031;-83
2022/10/06 14:06:59;;;;;;;7.82;1.88;;;18.00;99.90;;;;;;6218350;23;20098;-83
2022/10/06 14:09:30;;;;;;;9.68;1.70;;;17.90;99.60;;;;;;6217057;23;20082;-83